Time;durP1;ratioP1;P1;durP2;ratioP2;P2;SDS_P1;SDS_P2;PMS_P1;PMS_P2;Temp;Humidity;BMP_temperature;BMP_pressure;BME280_temperature;BME280_humidity;BME280_pressure;Samples;Min_cycle;Max_cycle;Signal;HPM_P1;HPM_P2
2023/09/01 00:01:42;;;;;;;0.00;0.00;;;14.30;81.70;;;;;;5028755;28;20051;-68
2023/09/01 00:04:07;;;;;;;0.00;0.00;;;14.30;81.80;;;;;;5011328;28;20133;-68
2023/09/01 00:06:33;;;;;;;0.00;0.00;;;14.20;81.70;;;;;;5011434;28;20406;-68
2023/09/01 00:08:59;;;;;;;0.00;0.00;;;14.30;81.60;;;;;;5011669;28;20058;-68
2023/09/01 00:11:24;;;;;;;0.00;0.00;;;14.20;81.60;;;;;;5012515;28;20046;-68
2023/09/01 00:13:50;;;;;;;0.00;0.00;;;14.30;81.80;;;;;;5020144;28;20096;-68
2023/09/01 00:16:16;;;;;;;0.00;0.00;;;14.20;81.70;;;;;;5030589;28;20515;-68
2023/09/01 00:18:41;;;;;;;0.00;0.00;;;14.20;82.10;;;;;;5029816;28;20049;-69
2023/09/01 00:21:07;;;;;;;0.00;0.00;;;14.30;82.20;;;;;;5024831;28;20045;-69
2023/09/01 00:23:33;;;;;;;0.00;0.00;;;14.20;82.30;;;;;;5010021;28;20391;-69
2023/09/01 00:26:00;;;;;;;0.00;0.00;;;14.20;82.50;;;;;;5011313;28;20058;-68
2023/09/01 00:28:26;;;;;;;0.00;0.00;;;14.20;82.30;;;;;;5017915;28;20049;-68
2023/09/01 00:30:57;;;;;;;0.00;0.00;;;14.20;82.20;;;;;;5015340;28;20042;-68
2023/09/01 00:33:26;;;;;;;0.00;0.00;;;14.30;82.20;;;;;;5012275;28;20052;-68
2023/09/01 00:35:53;;;;;;;0.00;0.00;;;14.20;82.30;;;;;;5019067;28;20052;-68
2023/09/01 00:38:19;;;;;;;0.00;0.00;;;14.20;82.70;;;;;;5027341;28;20072;-68
2023/09/01 00:40:46;;;;;;;0.00;0.00;;;14.20;82.70;;;;;;5008508;28;20501;-68
2023/09/01 00:43:12;;;;;;;0.00;0.00;;;14.10;82.70;;;;;;5030279;28;20409;-68
2023/09/01 00:45:38;;;;;;;0.00;0.00;;;14.10;82.60;;;;;;5012498;28;20045;-68
2023/09/01 00:48:06;;;;;;;0.00;0.00;;;14.10;82.40;;;;;;5017197;28;20418;-68
2023/09/01 00:50:33;;;;;;;0.00;0.00;;;14.10;82.60;;;;;;4998908;28;20042;-69
2023/09/01 00:53:00;;;;;;;0.00;0.00;;;14.10;82.70;;;;;;5025011;28;20073;-69
2023/09/01 00:55:26;;;;;;;0.00;0.00;;;14.10;82.60;;;;;;5029933;28;20409;-68
2023/09/01 00:57:53;;;;;;;0.00;0.00;;;14.10;82.40;;;;;;5029925;28;20049;-69
2023/09/01 01:00:19;;;;;;;0.00;0.00;;;14.20;82.30;;;;;;5022236;28;20049;-69
2023/09/01 01:02:46;;;;;;;0.00;0.00;;;14.10;82.20;;;;;;5025284;28;20112;-69
2023/09/01 01:05:15;;;;;;;0.00;0.00;;;14.10;82.10;;;;;;5021537;28;20053;-69
2023/09/01 01:07:55;;;;;;;0.00;0.00;;;14.10;82.10;;;;;;5008666;28;20041;-69
2023/09/01 01:10:31;;;;;;;0.00;0.00;;;14.10;82.10;;;;;;5029935;28;20533;-69
2023/09/01 01:13:13;;;;;;;0.00;0.00;;;14.10;82.30;;;;;;5020593;28;20046;-69
2023/09/01 01:15:40;;;;;;;0.00;0.00;;;14.10;82.40;;;;;;5029770;28;20429;-69
2023/09/01 01:18:11;;;;;;;0.00;0.00;;;14.20;82.40;;;;;;5026338;28;20517;-69
2023/09/01 01:21:05;;;;;;;0.00;0.00;;;14.10;82.50;;;;;;5022873;28;20034;-69
2023/09/01 01:23:31;;;;;;;0.00;0.00;;;14.10;82.70;;;;;;5015659;28;20041;-69
2023/09/01 01:25:57;;;;;;;0.00;0.00;;;14.10;82.80;;;;;;5020266;28;20045;-69
2023/09/01 01:28:23;;;;;;;0.00;0.00;;;14.10;82.90;;;;;;5022872;28;20054;-69
2023/09/01 01:30:49;;;;;;;0.00;0.00;;;14.10;83.00;;;;;;5017502;28;20111;-69
2023/09/01 01:33:27;;;;;;;0.00;0.00;;;14.10;83.10;;;;;;5019334;28;20393;-69
2023/09/01 01:36:30;;;;;;;0.00;0.00;;;14.10;83.10;;;;;;5009723;28;20050;-69
2023/09/01 01:39:05;;;;;;;0.00;0.00;;;14.00;83.30;;;;;;5020881;28;20137;-69
2023/09/01 01:41:43;;;;;;;0.00;0.00;;;14.10;83.50;;;;;;5022844;28;20052;-69
2023/09/01 01:44:12;;;;;;;0.00;0.00;;;14.10;83.50;;;;;;5028781;28;20049;-69
2023/09/01 01:46:39;;;;;;;0.00;0.00;;;14.10;83.40;;;;;;5029511;28;20056;-69
2023/09/01 01:49:09;;;;;;;0.00;0.00;;;14.00;83.40;;;;;;5029282;28;20075;-68
2023/09/01 01:51:35;;;;;;;0.00;0.00;;;14.00;83.40;;;;;;5012132;28;20429;-68
2023/09/01 01:54:02;;;;;;;0.00;0.00;;;14.00;83.30;;;;;;4993521;28;20124;-69
2023/09/01 01:56:27;;;;;;;0.00;0.00;;;14.00;83.20;;;;;;5027233;28;20153;-69
2023/09/01 01:58:53;;;;;;;0.00;0.00;;;14.00;83.30;;;;;;5029103;28;20136;-69
2023/09/01 02:01:19;;;;;;;0.00;0.00;;;13.90;83.10;;;;;;5021254;28;20053;-69
2023/09/01 02:03:44;;;;;;;0.00;0.00;;;13.90;83.00;;;;;;5021844;28;20085;-69
2023/09/01 02:06:10;;;;;;;0.00;0.00;;;13.90;83.20;;;;;;5027425;28;20052;-68
2023/09/01 02:08:36;;;;;;;0.00;0.00;;;13.90;83.10;;;;;;5009625;28;20552;-69
2023/09/01 02:11:01;;;;;;;0.00;0.00;;;13.80;83.20;;;;;;5021801;28;20033;-69
2023/09/01 02:13:27;;;;;;;0.00;0.00;;;13.80;83.30;;;;;;5019943;28;20486;-68
2023/09/01 02:15:55;;;;;;;0.00;0.00;;;13.80;83.30;;;;;;5028239;28;20060;-69
2023/09/01 02:18:21;;;;;;;0.00;0.00;;;13.80;83.40;;;;;;5028846;28;20063;-68
2023/09/01 02:20:46;;;;;;;0.00;0.00;;;13.90;83.50;;;;;;5028100;28;20049;-68
2023/09/01 02:23:17;;;;;;;0.00;0.00;;;13.90;83.50;;;;;;5028898;28;20161;-69
2023/09/01 02:25:44;;;;;;;0.00;0.00;;;13.90;83.40;;;;;;5024493;28;20038;-69
2023/09/01 02:28:09;;;;;;;0.00;0.00;;;13.80;83.30;;;;;;5009561;28;20042;-69
2023/09/01 02:30:35;;;;;;;0.00;0.00;;;13.90;83.30;;;;;;5025076;28;20516;-69
2023/09/01 02:33:01;;;;;;;0.00;0.00;;;13.80;83.30;;;;;;5028399;28;20112;-69
2023/09/01 02:35:27;;;;;;;0.00;0.00;;;13.80;83.20;;;;;;5027579;28;20057;-68
2023/09/01 02:37:52;;;;;;;0.00;0.00;;;13.90;83.10;;;;;;5027418;28;20053;-69
2023/09/01 02:40:21;;;;;;;0.00;0.00;;;13.80;83.00;;;;;;5010306;28;20053;-68
2023/09/01 02:42:47;;;;;;;0.00;0.00;;;13.80;83.00;;;;;;5028340;28;20049;-68
2023/09/01 02:45:12;;;;;;;0.00;0.00;;;13.80;83.00;;;;;;5028298;28;20402;-69
2023/09/01 02:47:40;;;;;;;0.00;0.00;;;13.80;83.20;;;;;;5028999;28;20038;-69
2023/09/01 02:50:07;;;;;;;0.00;0.00;;;13.80;83.20;;;;;;5022513;28;20053;-69
2023/09/01 02:52:32;;;;;;;0.00;0.00;;;13.70;83.00;;;;;;5015222;28;20080;-69
2023/09/01 02:54:59;;;;;;;0.00;0.00;;;13.70;83.00;;;;;;5009021;28;20495;-69
2023/09/01 02:57:25;;;;;;;0.00;0.00;;;13.70;83.00;;;;;;5009120;28;20737;-69
2023/09/01 02:59:54;;;;;;;0.00;0.00;;;13.70;83.00;;;;;;5014679;28;20069;-69
2023/09/01 03:02:20;;;;;;;0.00;0.00;;;13.70;83.00;;;;;;5019069;28;20042;-69
2023/09/01 03:04:50;;;;;;;0.00;0.00;;;13.70;82.90;;;;;;5007764;28;20530;-69
2023/09/01 03:07:16;;;;;;;0.00;0.00;;;13.60;82.90;;;;;;5018542;28;20044;-69
2023/09/01 03:09:41;;;;;;;0.00;0.00;;;13.60;82.90;;;;;;5024823;28;20042;-69
2023/09/01 03:12:07;;;;;;;0.00;0.00;;;13.60;82.80;;;;;;5028027;28;20379;-69
2023/09/01 03:14:33;;;;;;;0.00;0.00;;;13.50;82.80;;;;;;5028128;28;20068;-69
2023/09/01 03:16:58;;;;;;;0.00;0.00;;;13.50;82.80;;;;;;5023572;28;20052;-69
2023/09/01 03:19:24;;;;;;;0.00;0.00;;;13.50;82.90;;;;;;5014786;28;20132;-69
2023/09/01 03:21:50;;;;;;;0.13;0.13;;;13.50;82.90;;;;;;5031796;28;20037;-69
2023/09/01 03:24:15;;;;;;;0.00;0.00;;;13.50;83.00;;;;;;5031925;28;20045;-69
2023/09/01 03:26:41;;;;;;;0.00;0.00;;;13.50;83.00;;;;;;5031017;28;20137;-69
2023/09/01 03:29:06;;;;;;;0.00;0.00;;;13.50;83.10;;;;;;5011101;28;20038;-69
2023/09/01 03:31:32;;;;;;;0.10;0.10;;;13.50;83.10;;;;;;5030877;28;20049;-69
2023/09/01 03:33:59;;;;;;;0.00;0.00;;;13.40;83.00;;;;;;5031485;28;20107;-69
2023/09/01 03:36:25;;;;;;;0.00;0.00;;;13.40;82.80;;;;;;5026934;28;20089;-69
2023/09/01 03:38:53;;;;;;;0.10;0.10;;;13.30;82.80;;;;;;5020297;28;20077;-69
2023/09/01 03:41:19;;;;;;;0.00;0.00;;;13.30;82.90;;;;;;5024879;28;20037;-69
2023/09/01 03:43:44;;;;;;;0.00;0.00;;;13.20;83.00;;;;;;5031890;28;20047;-69
2023/09/01 03:46:10;;;;;;;0.10;0.10;;;13.30;83.00;;;;;;5032228;28;20057;-69
2023/09/01 03:48:35;;;;;;;0.00;0.00;;;13.20;83.00;;;;;;5016026;28;20081;-69
2023/09/01 03:51:19;;;;;;;0.10;0.10;;;13.20;83.00;;;;;;5014602;28;20115;-69
2023/09/01 03:53:45;;;;;;;0.00;0.00;;;13.20;83.00;;;;;;5032134;28;20057;-69
2023/09/01 03:56:16;;;;;;;0.00;0.00;;;13.20;83.00;;;;;;5031965;28;20060;-69
2023/09/01 03:58:42;;;;;;;0.00;0.00;;;13.20;82.90;;;;;;5032374;28;20084;-69
2023/09/01 04:01:09;;;;;;;0.00;0.00;;;13.20;82.90;;;;;;5029297;28;20038;-69
2023/09/01 04:03:35;;;;;;;0.00;0.00;;;13.10;82.90;;;;;;5014798;28;20048;-69
2023/09/01 04:06:01;;;;;;;0.00;0.00;;;13.10;82.90;;;;;;5032163;28;20103;-69
2023/09/01 04:08:27;;;;;;;0.05;0.05;;;13.00;82.90;;;;;;5013368;28;20049;-69
2023/09/01 04:10:52;;;;;;;0.00;0.00;;;13.00;83.00;;;;;;5006059;28;20084;-69
2023/09/01 04:13:18;;;;;;;0.00;0.00;;;13.10;83.10;;;;;;5010202;28;20121;-69
2023/09/01 04:15:43;;;;;;;0.10;0.10;;;13.00;83.20;;;;;;5016606;28;20199;-69
2023/09/01 04:18:09;;;;;;;0.00;0.00;;;13.00;83.40;;;;;;5023349;28;20038;-69
2023/09/01 04:20:34;;;;;;;0.00;0.00;;;13.00;83.40;;;;;;5021060;28;20643;-69
2023/09/01 04:23:00;;;;;;;0.00;0.00;;;13.00;83.30;;;;;;5029736;28;20072;-69
2023/09/01 04:25:26;;;;;;;0.00;0.00;;;12.90;83.30;;;;;;5029555;28;20047;-69
2023/09/01 04:27:51;;;;;;;0.00;0.00;;;12.90;83.30;;;;;;5015139;28;20060;-69
2023/09/01 04:30:17;;;;;;;0.00;0.00;;;12.90;83.30;;;;;;5025664;28;20050;-69
2023/09/01 04:32:43;;;;;;;0.00;0.00;;;12.90;83.40;;;;;;4995066;28;20095;-69
2023/09/01 04:35:09;;;;;;;0.08;0.08;;;12.90;83.30;;;;;;5013006;28;20049;-69
2023/09/01 04:37:35;;;;;;;0.00;0.00;;;12.90;83.40;;;;;;5030434;28;20132;-69
2023/09/01 04:40:06;;;;;;;0.00;0.00;;;12.90;83.40;;;;;;4994174;28;20121;-69
2023/09/01 04:42:31;;;;;;;0.08;0.08;;;12.90;83.50;;;;;;5010197;28;20429;-69
2023/09/01 04:44:57;;;;;;;0.00;0.00;;;12.90;83.60;;;;;;5029966;28;20037;-69
2023/09/01 04:47:23;;;;;;;0.00;0.00;;;12.90;83.60;;;;;;5030112;28;20102;-69
2023/09/01 04:49:49;;;;;;;0.00;0.00;;;12.90;83.60;;;;;;5030373;28;20054;-69
2023/09/01 04:52:15;;;;;;;0.00;0.00;;;12.90;83.70;;;;;;5029359;28;20426;-69
2023/09/01 04:54:41;;;;;;;0.05;0.05;;;12.90;83.70;;;;;;5012841;28;20069;-69
2023/09/01 04:57:06;;;;;;;0.00;0.00;;;12.90;83.60;;;;;;5030134;28;20092;-69
2023/09/01 04:59:32;;;;;;;0.00;0.00;;;12.90;83.60;;;;;;5030317;28;20057;-69
2023/09/01 05:02:01;;;;;;;0.00;0.00;;;12.90;83.50;;;;;;5009587;28;20461;-70
2023/09/01 05:04:26;;;;;;;0.00;0.00;;;12.90;83.50;;;;;;4996760;28;20148;-69
2023/09/01 05:06:52;;;;;;;0.08;0.08;;;12.90;83.50;;;;;;5024744;28;20101;-69
2023/09/01 05:09:19;;;;;;;0.00;0.00;;;12.90;83.50;;;;;;4998036;28;20050;-69
2023/09/01 05:11:44;;;;;;;0.00;0.00;;;12.90;83.50;;;;;;5018332;28;20034;-69
2023/09/01 05:14:10;;;;;;;0.00;0.00;;;12.90;83.50;;;;;;5028070;28;20163;-69
2023/09/01 05:16:36;;;;;;;0.00;0.00;;;13.00;83.70;;;;;;4994504;28;20049;-69
2023/09/01 05:19:03;;;;;;;0.00;0.00;;;13.00;83.90;;;;;;5014499;28;20493;-69
2023/09/01 05:21:28;;;;;;;0.00;0.00;;;13.10;84.00;;;;;;5029237;28;20054;-69
2023/09/01 05:23:54;;;;;;;0.00;0.00;;;13.10;84.10;;;;;;5018915;28;20168;-69
2023/09/01 05:26:19;;;;;;;0.00;0.00;;;13.10;84.10;;;;;;5002686;28;20060;-69
2023/09/01 05:28:45;;;;;;;0.00;0.00;;;13.10;84.10;;;;;;5011710;28;20041;-69
2023/09/01 05:31:11;;;;;;;0.00;0.00;;;13.20;84.00;;;;;;5028265;28;20054;-69
2023/09/01 05:33:36;;;;;;;0.00;0.00;;;13.20;84.00;;;;;;5028899;28;20049;-69
2023/09/01 05:36:03;;;;;;;0.00;0.00;;;13.20;84.10;;;;;;5028726;28;20532;-69
2023/09/01 05:38:28;;;;;;;0.00;0.00;;;13.30;84.10;;;;;;5011689;28;20585;-69
2023/09/01 05:41:02;;;;;;;0.05;0.05;;;13.30;84.00;;;;;;5010394;28;20045;-69
2023/09/01 05:43:29;;;;;;;0.00;0.00;;;13.30;84.00;;;;;;5029238;28;20497;-69
2023/09/01 05:45:54;;;;;;;0.00;0.00;;;13.40;84.10;;;;;;5028648;28;20049;-69
2023/09/01 05:48:20;;;;;;;0.00;0.00;;;13.40;84.10;;;;;;5029086;28;20740;-69
2023/09/01 05:50:45;;;;;;;0.00;0.00;;;13.50;84.10;;;;;;5029180;28;20053;-69
2023/09/01 05:53:11;;;;;;;0.00;0.00;;;13.50;84.20;;;;;;5029247;28;20084;-70
2023/09/01 05:55:37;;;;;;;0.00;0.00;;;13.50;84.20;;;;;;5010997;28;20084;-69
2023/09/01 05:58:03;;;;;;;0.00;0.00;;;13.60;84.20;;;;;;5024763;28;20034;-69
2023/09/01 06:00:29;;;;;;;0.00;0.00;;;13.60;84.10;;;;;;5009792;28;20045;-69
2023/09/01 06:02:58;;;;;;;0.00;0.00;;;13.60;84.10;;;;;;5008062;28;20072;-69
2023/09/01 06:05:24;;;;;;;0.00;0.00;;;13.60;84.10;;;;;;5021081;28;20042;-69
2023/09/01 06:07:49;;;;;;;0.00;0.00;;;13.60;84.20;;;;;;5018903;28;20041;-69
2023/09/01 06:10:15;;;;;;;0.00;0.00;;;13.70;84.30;;;;;;5018915;28;20084;-69
2023/09/01 06:12:41;;;;;;;0.00;0.00;;;13.70;84.30;;;;;;5022603;28;20581;-69
2023/09/01 06:15:07;;;;;;;0.03;0.03;;;13.80;84.40;;;;;;5001661;28;20045;-70
2023/09/01 06:17:33;;;;;;;0.00;0.00;;;13.90;84.40;;;;;;5011641;28;20706;-70
2023/09/01 06:19:59;;;;;;;0.00;0.00;;;13.90;84.30;;;;;;5021900;28;20046;-70
2023/09/01 06:22:24;;;;;;;0.00;0.00;;;14.00;84.40;;;;;;5018132;28;20460;-70
2023/09/01 06:24:50;;;;;;;0.00;0.00;;;14.00;84.30;;;;;;5019982;28;20042;-70
2023/09/01 06:27:16;;;;;;;0.00;0.00;;;14.10;84.30;;;;;;5008936;28;20445;-70
2023/09/01 06:29:41;;;;;;;0.00;0.00;;;14.10;84.30;;;;;;5009437;28;20512;-70
2023/09/01 06:32:11;;;;;;;0.00;0.00;;;14.20;84.30;;;;;;5026246;28;20841;-70
2023/09/01 06:34:37;;;;;;;0.00;0.00;;;14.30;84.40;;;;;;5008606;28;20037;-70
2023/09/01 06:37:03;;;;;;;0.00;0.00;;;14.30;84.60;;;;;;4997379;28;20649;-70
2023/09/01 06:39:29;;;;;;;0.00;0.00;;;14.40;84.60;;;;;;5023547;28;20041;-70
2023/09/01 06:41:55;;;;;;;0.00;0.00;;;14.40;84.60;;;;;;5012149;28;20048;-69
2023/09/01 06:44:20;;;;;;;0.00;0.00;;;14.50;84.50;;;;;;5023301;28;20046;-70
2023/09/01 06:46:46;;;;;;;0.00;0.00;;;14.50;84.40;;;;;;4998688;28;20045;-70
2023/09/01 06:49:12;;;;;;;0.00;0.00;;;14.50;84.30;;;;;;5018849;28;20520;-70
2023/09/01 06:51:38;;;;;;;0.00;0.00;;;14.50;84.40;;;;;;5008127;28;20870;-70
2023/09/01 06:54:03;;;;;;;0.00;0.00;;;14.60;84.40;;;;;;5022607;28;20402;-69
2023/09/01 06:56:29;;;;;;;0.00;0.00;;;14.60;84.50;;;;;;5013838;28;20537;-69
2023/09/01 06:58:54;;;;;;;0.00;0.00;;;14.60;84.50;;;;;;5024956;28;20065;-72
2023/09/01 07:01:21;;;;;;;0.00;0.00;;;14.70;84.50;;;;;;5008881;28;20045;-72
2023/09/01 07:03:47;;;;;;;0.00;0.00;;;14.70;84.40;;;;;;5023800;28;20045;-71
2023/09/01 07:06:13;;;;;;;0.00;0.00;;;14.80;84.40;;;;;;5027649;28;20060;-73
2023/09/01 07:08:39;;;;;;;0.10;0.10;;;14.80;84.40;;;;;;5005707;28;20053;-72
2023/09/01 07:11:09;;;;;;;0.00;0.00;;;14.90;84.50;;;;;;5005624;28;20867;-72
2023/09/01 07:13:35;;;;;;;0.00;0.00;;;14.90;84.50;;;;;;5020950;28;20073;-72
2023/09/01 07:16:00;;;;;;;0.00;0.00;;;15.00;84.40;;;;;;5018012;28;20068;-71
2023/09/01 07:18:26;;;;;;;0.00;0.00;;;15.10;84.30;;;;;;5004745;28;20117;-70
2023/09/01 07:20:56;;;;;;;0.00;0.00;;;15.10;84.50;;;;;;5000287;28;20084;-71
2023/09/01 07:23:22;;;;;;;0.00;0.00;;;15.20;84.40;;;;;;5009513;28;20060;-71
2023/09/01 07:25:47;;;;;;;0.00;0.00;;;15.20;84.30;;;;;;5006699;28;20049;-71
2023/09/01 07:28:13;;;;;;;0.00;0.00;;;15.60;85.30;;;;;;5012685;28;20049;-71
2023/09/01 07:30:39;;;;;;;0.00;0.00;;;15.60;84.80;;;;;;5031177;28;20128;-71
2023/09/01 07:33:05;;;;;;;0.00;0.00;;;15.80;84.30;;;;;;5022561;28;20047;-70
2023/09/01 07:35:31;;;;;;;0.00;0.00;;;15.80;84.10;;;;;;5013161;28;20394;-71
2023/09/01 07:37:57;;;;;;;0.00;0.00;;;15.80;83.90;;;;;;5013472;28;20045;-71
2023/09/01 07:40:23;;;;;;;0.00;0.00;;;15.90;83.80;;;;;;5013678;28;20558;-71
2023/09/01 07:42:49;;;;;;;0.00;0.00;;;15.90;83.70;;;;;;5013803;28;20058;-71
2023/09/01 07:45:14;;;;;;;0.00;0.00;;;15.90;83.60;;;;;;5012760;28;20073;-71
2023/09/01 07:47:40;;;;;;;0.00;0.00;;;16.00;83.50;;;;;;5003538;28;20053;-71
2023/09/01 07:50:06;;;;;;;0.00;0.00;;;16.00;83.30;;;;;;5010292;28;20557;-72
2023/09/01 07:52:32;;;;;;;0.00;0.00;;;16.00;83.20;;;;;;4995149;28;20134;-72
2023/09/01 07:54:58;;;;;;;0.00;0.00;;;16.00;83.10;;;;;;5030205;28;20207;-71
2023/09/01 07:57:23;;;;;;;0.00;0.00;;;16.10;83.10;;;;;;5004354;28;20099;-71
2023/09/01 07:59:49;;;;;;;0.00;0.00;;;16.10;83.10;;;;;;5010445;28;20049;-71
2023/09/01 08:02:14;;;;;;;0.00;0.00;;;16.20;83.10;;;;;;5027626;28;20045;-71
2023/09/01 08:04:40;;;;;;;0.00;0.00;;;16.20;83.10;;;;;;5030851;28;20049;-71
2023/09/01 08:07:06;;;;;;;0.00;0.00;;;16.30;83.10;;;;;;5013411;28;20045;-71
2023/09/01 08:09:31;;;;;;;0.00;0.00;;;16.40;83.00;;;;;;5013130;28;20046;-71
2023/09/01 08:11:57;;;;;;;0.00;0.00;;;16.50;82.80;;;;;;5030200;28;20049;-71
2023/09/01 08:14:22;;;;;;;0.00;0.00;;;16.60;82.70;;;;;;5005755;28;20093;-72
2023/09/01 08:16:48;;;;;;;0.00;0.00;;;16.60;82.60;;;;;;4993529;28;20050;-71
2023/09/01 08:19:14;;;;;;;0.00;0.00;;;16.70;82.40;;;;;;5000574;28;20041;-72
2023/09/01 08:21:40;;;;;;;0.00;0.00;;;16.80;82.10;;;;;;5001422;28;21328;-71
2023/09/01 08:24:07;;;;;;;0.00;0.00;;;16.80;82.00;;;;;;5018075;28;20141;-71
2023/09/01 08:26:35;;;;;;;0.00;0.00;;;16.90;81.90;;;;;;5002234;28;20513;-71
2023/09/01 08:29:01;;;;;;;0.00;0.00;;;16.90;81.60;;;;;;5001248;28;20052;-71
2023/09/01 08:31:26;;;;;;;0.00;0.00;;;16.90;81.70;;;;;;5000582;28;20539;-70
2023/09/01 08:33:53;;;;;;;0.00;0.00;;;17.00;81.50;;;;;;5018792;28;20038;-71
2023/09/01 08:36:21;;;;;;;0.00;0.00;;;17.00;81.40;;;;;;5019440;28;20071;-71
2023/09/01 08:38:46;;;;;;;0.00;0.00;;;17.00;81.20;;;;;;5018328;28;20060;-71
2023/09/01 08:41:12;;;;;;;0.00;0.00;;;17.10;81.20;;;;;;4986196;28;20046;-70
2023/09/01 08:43:39;;;;;;;0.00;0.00;;;17.10;81.10;;;;;;5018358;28;20041;-71
2023/09/01 08:46:05;;;;;;;0.00;0.00;;;17.20;81.00;;;;;;4999944;28;20045;-70
2023/09/01 08:48:32;;;;;;;0.00;0.00;;;17.20;80.90;;;;;;5018864;28;20049;-70
2023/09/01 08:50:58;;;;;;;0.00;0.00;;;17.30;81.00;;;;;;5018477;28;20191;-70
2023/09/01 08:53:25;;;;;;;0.00;0.00;;;17.30;81.00;;;;;;5017351;28;20144;-70
2023/09/01 08:55:51;;;;;;;0.00;0.00;;;17.30;81.00;;;;;;5016521;28;20053;-72
2023/09/01 08:58:21;;;;;;;0.00;0.00;;;17.30;80.60;;;;;;5012197;28;20128;-70
2023/09/01 09:00:47;;;;;;;0.00;0.00;;;17.40;80.40;;;;;;5016427;28;20073;-70
2023/09/01 09:03:17;;;;;;;0.00;0.00;;;17.40;80.30;;;;;;5016825;28;20405;-70
2023/09/01 09:05:44;;;;;;;0.00;0.00;;;17.40;80.30;;;;;;5018195;28;20045;-70
2023/09/01 09:08:10;;;;;;;0.00;0.00;;;17.50;80.40;;;;;;4999760;28;20049;-70
2023/09/01 09:10:46;;;;;;;0.00;0.00;;;17.50;80.30;;;;;;5017125;28;20088;-70
2023/09/01 09:13:25;;;;;;;0.00;0.00;;;17.60;80.20;;;;;;5017476;28;20111;-70
2023/09/01 09:16:17;;;;;;;0.00;0.00;;;17.60;79.90;;;;;;5015177;28;20435;-70
2023/09/01 09:18:47;;;;;;;0.00;0.00;;;17.60;79.60;;;;;;5014791;28;20068;-70
2023/09/01 09:21:28;;;;;;;0.00;0.00;;;17.60;79.50;;;;;;5018364;28;20056;-70
2023/09/01 09:23:59;;;;;;;0.00;0.00;;;17.60;79.50;;;;;;5017249;28;20046;-70
2023/09/01 09:26:27;;;;;;;0.00;0.00;;;17.60;79.40;;;;;;5000038;28;20045;-69
2023/09/01 09:28:53;;;;;;;0.00;0.00;;;17.60;79.20;;;;;;5017107;28;20037;-70
2023/09/01 09:31:28;;;;;;;0.00;0.00;;;17.60;79.10;;;;;;5017650;28;20041;-71
2023/09/01 09:33:54;;;;;;;0.00;0.00;;;17.60;79.20;;;;;;5018237;28;20052;-70
2023/09/01 09:36:32;;;;;;;0.00;0.00;;;17.70;79.20;;;;;;5017160;28;20038;-72
2023/09/01 09:38:58;;;;;;;0.10;0.10;;;17.80;79.30;;;;;;4999341;28;20045;-69
2023/09/01 09:41:23;;;;;;;0.00;0.00;;;17.70;79.20;;;;;;5017363;28;20044;-68
2023/09/01 09:43:50;;;;;;;0.00;0.00;;;17.70;79.20;;;;;;5000004;28;20120;-68
2023/09/01 09:46:17;;;;;;;0.00;0.00;;;17.80;79.20;;;;;;5017749;28;20107;-68
2023/09/01 09:48:43;;;;;;;0.00;0.00;;;17.80;79.20;;;;;;5017432;28;20057;-69
2023/09/01 09:51:10;;;;;;;0.00;0.00;;;17.80;79.10;;;;;;4998242;28;20054;-69
2023/09/01 09:53:36;;;;;;;0.00;0.00;;;17.80;78.90;;;;;;5017515;28;20037;-71
2023/09/01 09:56:35;;;;;;;0.00;0.00;;;17.80;78.80;;;;;;5016675;28;20490;-69
2023/09/01 09:59:03;;;;;;;0.03;0.03;;;17.80;78.90;;;;;;5017415;28;20056;-74
2023/09/01 10:01:34;;;;;;;0.00;0.00;;;17.80;78.20;;;;;;4999804;28;20049;-71
2023/09/01 10:04:04;;;;;;;0.00;0.00;;;17.80;78.10;;;;;;5015775;28;20099;-71
2023/09/01 10:06:31;;;;;;;0.00;0.00;;;17.90;78.30;;;;;;5017716;28;20529;-72
2023/09/01 10:08:59;;;;;;;0.00;0.00;;;18.00;78.30;;;;;;5017024;28;20050;-71
2023/09/01 10:11:28;;;;;;;0.00;0.00;;;18.00;78.00;;;;;;5017382;28;20898;-71
2023/09/01 10:13:54;;;;;;;0.00;0.00;;;18.00;78.00;;;;;;5018771;28;20085;-71
2023/09/01 10:16:20;;;;;;;0.00;0.00;;;18.10;77.90;;;;;;5016847;28;20042;-71
2023/09/01 10:18:47;;;;;;;0.00;0.00;;;18.20;78.10;;;;;;5018043;28;20056;-71
2023/09/01 10:21:13;;;;;;;0.00;0.00;;;18.20;78.10;;;;;;5016514;28;20180;-71
2023/09/01 10:23:39;;;;;;;0.00;0.00;;;18.30;77.80;;;;;;5017981;28;20058;-71
2023/09/01 10:26:16;;;;;;;0.00;0.00;;;18.40;77.10;;;;;;5019143;28;20080;-71
2023/09/01 10:29:00;;;;;;;0.00;0.00;;;18.50;77.50;;;;;;5022207;28;20064;-68
2023/09/01 10:31:26;;;;;;;0.00;0.00;;;18.60;77.00;;;;;;5021233;28;20501;-70
2023/09/01 10:34:13;;;;;;;0.00;0.00;;;18.80;76.60;;;;;;5020926;28;20437;-69
2023/09/01 10:36:41;;;;;;;0.00;0.00;;;19.00;76.40;;;;;;4987739;28;20045;-69
2023/09/01 10:39:18;;;;;;;0.00;0.00;;;19.00;75.30;;;;;;5020605;28;20075;-70
2023/09/01 10:41:58;;;;;;;0.00;0.00;;;19.10;75.40;;;;;;5003747;28;20049;-70
2023/09/01 10:44:44;;;;;;;0.00;0.00;;;19.20;74.40;;;;;;5018396;28;20119;-68
2023/09/01 10:47:31;;;;;;;0.00;0.00;;;19.30;75.20;;;;;;5001004;28;20072;-68
2023/09/01 10:49:58;;;;;;;0.00;0.00;;;19.40;74.90;;;;;;5021917;28;20637;-69
2023/09/01 10:52:26;;;;;;;0.28;0.28;;;19.30;73.80;;;;;;5020385;28;20519;-69
2023/09/01 10:55:12;;;;;;;0.00;0.00;;;19.40;74.20;;;;;;5021517;28;20053;-69
2023/09/01 10:57:46;;;;;;;0.00;0.00;;;19.40;74.10;;;;;;5019884;28;20053;-69
2023/09/01 11:00:29;;;;;;;0.00;0.00;;;19.40;73.50;;;;;;5021485;28;21205;-61
2023/09/01 11:03:29;;;;;;;0.00;0.00;;;19.40;74.20;;;;;;5020319;28;20042;-69
2023/09/01 11:06:03;;;;;;;0.00;0.00;;;19.50;74.90;;;;;;5020581;28;20052;-69
2023/09/01 11:08:30;;;;;;;0.00;0.00;;;19.60;74.30;;;;;;5020771;28;20128;-70
2023/09/01 11:11:06;;;;;;;0.00;0.00;;;19.80;74.00;;;;;;5020907;28;20056;-70
2023/09/01 11:13:31;;;;;;;0.00;0.00;;;19.80;73.40;;;;;;5019979;28;20509;-68
2023/09/01 11:15:57;;;;;;;0.00;0.00;;;19.90;73.80;;;;;;5019406;28;20038;-70
2023/09/01 11:18:24;;;;;;;0.00;0.00;;;20.00;74.00;;;;;;5019563;28;20814;-71
2023/09/01 11:20:55;;;;;;;0.00;0.00;;;20.10;72.20;;;;;;5002274;28;20839;-71
2023/09/01 11:23:24;;;;;;;0.00;0.00;;;20.20;73.00;;;;;;5003840;28;20050;-71
2023/09/01 11:26:08;;;;;;;0.00;0.00;;;20.30;73.10;;;;;;5020466;28;20045;-71
2023/09/01 11:28:35;;;;;;;0.00;0.00;;;20.30;72.90;;;;;;5019568;28;20064;-71
2023/09/01 11:31:05;;;;;;;0.00;0.00;;;20.30;71.40;;;;;;5020705;28;20050;-71
2023/09/01 11:33:36;;;;;;;0.00;0.00;;;20.30;72.40;;;;;;4987048;28;20050;-71
2023/09/01 11:36:12;;;;;;;0.00;0.00;;;20.30;72.70;;;;;;4987087;28;20050;-71
2023/09/01 11:38:39;;;;;;;0.00;0.00;;;20.30;72.20;;;;;;5019412;28;20453;-70
2023/09/01 11:41:07;;;;;;;0.00;0.00;;;20.30;71.70;;;;;;5019153;28;20057;-71
2023/09/01 11:43:33;;;;;;;0.00;0.00;;;20.30;71.90;;;;;;5020004;28;20074;-70
2023/09/01 11:45:59;;;;;;;0.00;0.00;;;20.20;72.20;;;;;;5022136;28;20041;-71
2023/09/01 11:48:26;;;;;;;0.00;0.00;;;20.20;71.70;;;;;;5029518;28;20053;-71
2023/09/01 11:50:57;;;;;;;0.00;0.00;;;20.20;72.50;;;;;;5011665;28;20047;-70
2023/09/01 11:53:23;;;;;;;0.00;0.00;;;20.30;72.90;;;;;;5002591;28;20053;-71
2023/09/01 11:55:50;;;;;;;0.00;0.00;;;20.50;72.80;;;;;;5028752;28;20176;-70
2023/09/01 11:58:15;;;;;;;0.00;0.00;;;20.50;71.90;;;;;;5029510;28;20038;-70
2023/09/01 12:00:42;;;;;;;0.00;0.00;;;20.60;71.40;;;;;;5029112;28;20132;-73
2023/09/01 12:03:08;;;;;;;0.00;0.00;;;20.60;71.70;;;;;;5012713;28;20140;-71
2023/09/01 12:05:39;;;;;;;0.00;0.00;;;20.70;71.20;;;;;;5027679;28;20615;-72
2023/09/01 12:08:06;;;;;;;0.00;0.00;;;20.70;71.60;;;;;;5008601;28;20579;-72
2023/09/01 12:10:32;;;;;;;0.00;0.00;;;20.60;70.70;;;;;;5027894;28;20033;-72
2023/09/01 12:13:12;;;;;;;0.00;0.00;;;20.60;71.40;;;;;;4997663;28;20038;-72
2023/09/01 12:15:56;;;;;;;0.00;0.00;;;20.60;71.70;;;;;;5023607;28;20046;-72
2023/09/01 12:18:38;;;;;;;0.00;0.00;;;20.60;70.80;;;;;;5029480;28;20081;-72
2023/09/01 12:21:07;;;;;;;0.00;0.00;;;20.70;70.90;;;;;;5026607;28;20136;-71
2023/09/01 12:23:37;;;;;;;0.00;0.00;;;20.70;70.90;;;;;;5011924;28;20049;-72
2023/09/01 12:26:03;;;;;;;0.00;0.00;;;20.70;70.30;;;;;;5028485;28;20072;-72
2023/09/01 12:28:31;;;;;;;0.00;0.00;;;20.80;70.50;;;;;;5029850;28;20069;-72
2023/09/01 12:30:58;;;;;;;0.00;0.00;;;20.90;71.20;;;;;;5011417;28;20401;-72
2023/09/01 12:33:24;;;;;;;0.20;0.20;;;20.90;70.50;;;;;;5010544;28;20049;-72
2023/09/01 12:35:50;;;;;;;0.00;0.00;;;21.10;71.00;;;;;;5029922;28;20557;-72
2023/09/01 12:38:16;;;;;;;0.00;0.00;;;21.00;70.30;;;;;;5029073;28;20080;-72
2023/09/01 12:40:42;;;;;;;0.00;0.00;;;21.00;70.40;;;;;;5010740;28;20080;-71
2023/09/01 12:43:08;;;;;;;0.00;0.00;;;21.10;70.40;;;;;;5029380;28;20770;-72
2023/09/01 12:45:34;;;;;;;0.00;0.00;;;21.10;70.70;;;;;;5029180;28;20055;-72
2023/09/01 12:48:00;;;;;;;0.00;0.00;;;21.10;70.00;;;;;;5025928;28;20493;-72
2023/09/01 12:50:26;;;;;;;0.00;0.00;;;21.10;70.60;;;;;;5026103;28;20049;-71
2023/09/01 12:52:53;;;;;;;0.00;0.00;;;21.10;69.90;;;;;;5028603;28;20470;-71